createdAt,value
2024-04-24T00:01:26.586Z,0.55
2024-04-24T00:03:53.508Z,0.50
2024-04-24T00:06:20.455Z,0.50
2024-04-24T00:08:47.267Z,0.50
2024-04-24T00:11:19.799Z,0.50
2024-04-24T00:13:46.762Z,0.60
2024-04-24T00:16:13.577Z,0.47
2024-04-24T00:18:42.371Z,0.60
2024-04-24T00:21:11.643Z,0.50
2024-04-24T00:23:38.476Z,0.50
2024-04-24T00:26:05.390Z,0.50
2024-04-24T00:28:32.251Z,0.50
2024-04-24T00:31:07.184Z,0.50
2024-04-24T00:33:34.128Z,0.50
2024-04-24T00:36:01.022Z,0.60
2024-04-24T00:38:28.024Z,0.50
2024-04-24T00:40:54.875Z,0.50
2024-04-24T00:43:21.693Z,0.50
2024-04-24T00:45:48.527Z,0.50
2024-04-24T00:48:16.428Z,0.50
2024-04-24T00:50:44.309Z,0.50
2024-04-24T00:53:11.236Z,0.52
2024-04-24T00:55:38.172Z,0.50
2024-04-24T00:58:06.117Z,0.50
2024-04-24T01:00:33.359Z,0.50
2024-04-24T01:03:01.225Z,0.50
2024-04-24T01:05:28.126Z,0.50
2024-04-24T01:07:55.088Z,0.50
2024-04-24T01:10:22.023Z,0.50
2024-04-24T01:12:49.939Z,0.50
2024-04-24T01:15:19.604Z,0.60
2024-04-24T01:17:50.495Z,0.50
2024-04-24T01:20:21.779Z,0.50
2024-04-24T01:23:07.695Z,0.50
2024-04-24T01:25:49.098Z,0.50
2024-04-24T01:28:16.224Z,0.50
2024-04-24T01:30:43.027Z,0.50
2024-04-24T01:33:09.926Z,0.50
2024-04-24T01:35:36.908Z,0.50
2024-04-24T01:38:04.008Z,0.50
2024-04-24T01:40:30.870Z,0.50
2024-04-24T01:42:57.708Z,0.50
2024-04-24T01:45:24.605Z,0.50
2024-04-24T01:47:51.672Z,0.50
2024-04-24T01:50:18.567Z,0.50
2024-04-24T01:52:45.461Z,0.50
2024-04-24T01:55:12.412Z,0.50
2024-04-24T01:57:39.213Z,0.50
2024-04-24T02:00:06.631Z,0.50
2024-04-24T02:02:33.575Z,0.50
2024-04-24T02:05:00.474Z,0.50
2024-04-24T02:07:27.353Z,0.50
2024-04-24T02:09:54.205Z,0.50
2024-04-24T02:12:21.212Z,0.50
2024-04-24T02:14:48.103Z,0.50
2024-04-24T02:17:15.016Z,0.50
2024-04-24T02:19:43.456Z,0.50
2024-04-24T02:22:10.825Z,0.50
2024-04-24T02:24:56.410Z,0.50
2024-04-24T02:27:23.248Z,0.50
2024-04-24T02:29:55.991Z,0.40
2024-04-24T02:32:24.031Z,0.57
2024-04-24T02:34:51.144Z,0.50
2024-04-24T02:37:18.036Z,0.50
2024-04-24T02:39:44.943Z,0.50
2024-04-24T02:42:11.882Z,0.50
2024-04-24T02:44:38.705Z,0.50
2024-04-24T02:47:05.663Z,0.50
2024-04-24T02:49:32.492Z,0.43
2024-04-24T02:51:59.327Z,0.43
2024-04-24T02:54:26.153Z,0.50
2024-04-24T02:56:53.648Z,0.50
2024-04-24T02:59:21.106Z,0.50
2024-04-24T03:01:48.193Z,0.50
2024-04-24T03:04:15.129Z,0.50
2024-04-24T03:06:45.634Z,0.50
2024-04-24T03:09:13.037Z,0.50
2024-04-24T03:11:40.747Z,0.50
2024-04-24T03:14:08.288Z,0.50
2024-04-24T03:16:35.595Z,0.40
2024-04-24T03:19:02.611Z,0.43
2024-04-24T03:21:29.544Z,0.50
2024-04-24T03:23:56.494Z,0.40
2024-04-24T03:26:23.462Z,0.50
2024-04-24T03:28:50.308Z,0.50
2024-04-24T03:31:17.171Z,0.50
2024-04-24T03:33:44.081Z,0.50
2024-04-24T03:36:10.937Z,0.50
2024-04-24T03:38:37.733Z,0.40
2024-04-24T03:41:04.765Z,0.50
2024-04-24T03:43:31.968Z,0.40
2024-04-24T03:45:58.843Z,0.50
2024-04-24T03:48:25.961Z,0.50
2024-04-24T03:50:52.869Z,0.50
2024-04-24T03:53:19.872Z,0.50
2024-04-24T03:55:46.782Z,0.50
2024-04-24T03:58:13.650Z,0.50
2024-04-24T04:00:40.601Z,0.50
2024-04-24T04:03:10.719Z,0.50
2024-04-24T04:05:38.188Z,0.50
2024-04-24T04:08:05.484Z,0.50
2024-04-24T04:10:32.315Z,0.50
2024-04-24T04:12:59.253Z,0.50
2024-04-24T04:15:26.153Z,0.50
2024-04-24T04:17:53.286Z,0.50
2024-04-24T04:20:20.368Z,0.50
2024-04-24T04:22:47.409Z,0.40
2024-04-24T04:25:14.404Z,0.50
2024-04-24T04:27:41.405Z,0.43
2024-04-24T04:30:08.819Z,0.50
2024-04-24T04:32:35.798Z,0.50
2024-04-24T04:35:02.795Z,0.50
2024-04-24T04:37:29.742Z,0.47
2024-04-24T04:39:56.544Z,0.50
2024-04-24T04:42:23.351Z,0.50
2024-04-24T04:44:50.185Z,0.47
2024-04-24T04:47:17.141Z,0.50
2024-04-24T04:49:43.999Z,0.50
2024-04-24T04:52:10.821Z,0.50
2024-04-24T04:54:37.610Z,0.50
2024-04-24T04:57:04.465Z,0.50
2024-04-24T04:59:31.304Z,0.50
2024-04-24T05:01:59.702Z,0.55
2024-04-24T05:04:26.982Z,0.60
2024-04-24T05:06:53.871Z,0.60
2024-04-24T05:09:20.733Z,0.60
2024-04-24T05:11:50.376Z,0.60
2024-04-24T05:14:17.478Z,0.60
2024-04-24T05:16:44.509Z,0.57
2024-04-24T05:19:11.391Z,0.60
2024-04-24T05:21:38.223Z,0.60
2024-04-24T05:24:05.468Z,0.60
2024-04-24T05:26:50.741Z,0.60
2024-04-24T05:29:17.562Z,0.60
2024-04-24T05:31:44.449Z,0.63
2024-04-24T05:34:11.340Z,0.60
2024-04-24T05:36:38.206Z,0.70
2024-04-24T05:39:05.026Z,0.60
2024-04-24T05:41:31.852Z,0.60
2024-04-24T05:43:58.768Z,0.60
2024-04-24T05:46:25.603Z,0.65
2024-04-24T05:48:52.618Z,0.70
2024-04-24T05:51:19.515Z,0.70
2024-04-24T05:53:46.403Z,0.63
2024-04-24T05:56:13.361Z,0.60
2024-04-24T05:58:40.211Z,0.60
2024-04-24T06:01:07.044Z,0.70
2024-04-24T06:03:33.872Z,0.63
2024-04-24T06:06:00.688Z,0.60
2024-04-24T06:08:27.545Z,0.70
2024-04-24T06:10:54.507Z,0.60
2024-04-24T06:13:21.600Z,0.70
2024-04-24T06:15:48.438Z,0.70
2024-04-24T06:18:15.375Z,0.70
2024-04-24T06:20:42.259Z,0.70
2024-04-24T06:23:09.194Z,0.63
2024-04-24T06:25:36.338Z,0.70
2024-04-24T06:28:03.230Z,0.60
2024-04-24T06:30:30.203Z,0.60
2024-04-24T06:32:57.228Z,0.60
2024-04-24T06:35:27.166Z,0.70
2024-04-24T06:37:55.105Z,0.70
2024-04-24T06:40:22.047Z,0.70
2024-04-24T06:42:52.102Z,0.60
2024-04-24T06:45:19.233Z,0.70
2024-04-24T06:47:46.094Z,0.60
2024-04-24T06:50:13.069Z,0.70
2024-04-24T06:52:39.987Z,0.65
2024-04-24T06:55:07.032Z,0.60
2024-04-24T06:57:33.848Z,0.60
2024-04-24T07:00:00.695Z,0.68
2024-04-24T07:02:27.551Z,0.70
2024-04-24T07:04:54.406Z,0.65
2024-04-24T07:07:23.050Z,0.60
2024-04-24T07:09:50.496Z,0.70
2024-04-24T07:12:17.402Z,0.70
2024-04-24T07:14:44.245Z,0.60
2024-04-24T07:17:11.144Z,0.70
2024-04-24T07:19:38.090Z,0.60
2024-04-24T07:22:05.539Z,0.70
2024-04-24T07:24:32.413Z,0.60
2024-04-24T07:26:59.235Z,0.70
2024-04-24T07:29:26.513Z,0.63
2024-04-24T07:31:53.432Z,0.70
2024-04-24T07:34:20.490Z,0.60
2024-04-24T07:36:47.353Z,0.70
2024-04-24T07:39:14.142Z,0.65
2024-04-24T07:41:43.588Z,0.60
2024-04-24T07:44:10.888Z,0.70
2024-04-24T07:46:37.876Z,0.70
2024-04-24T07:49:04.760Z,0.70
2024-04-24T07:51:31.713Z,0.60
2024-04-24T07:53:58.586Z,0.70
2024-04-24T07:56:25.638Z,0.70
2024-04-24T07:58:52.715Z,0.70
2024-04-24T08:01:23.482Z,0.60
2024-04-24T08:03:50.450Z,0.70
2024-04-24T08:06:17.468Z,0.73
2024-04-24T08:08:44.400Z,0.70
2024-04-24T08:11:11.554Z,0.70
2024-04-24T08:13:38.509Z,0.80
2024-04-24T08:16:05.629Z,0.70
2024-04-24T08:18:34.185Z,0.70
2024-04-24T08:21:02.430Z,0.70
2024-04-24T08:23:29.340Z,0.80
2024-04-24T08:25:56.566Z,0.80
2024-04-24T08:28:33.237Z,0.77
2024-04-24T08:33:35.100Z,0.80
2024-04-24T08:36:13.608Z,0.80
2024-04-24T08:38:41.264Z,0.80
2024-04-24T08:41:12.428Z,0.80
2024-04-24T08:43:44.099Z,0.73
2024-04-24T08:46:12.222Z,0.82
2024-04-24T08:48:44.129Z,0.90
2024-04-24T08:51:12.354Z,0.80
2024-04-24T08:54:05.884Z,0.80
2024-04-24T08:56:38.727Z,0.90
2024-04-24T08:59:12.872Z,0.90
2024-04-24T09:01:44.773Z,0.90
2024-04-24T09:04:14.363Z,0.82
2024-04-24T09:06:41.827Z,0.82
2024-04-24T09:09:09.097Z,0.80
2024-04-24T09:11:36.069Z,0.80
2024-04-24T09:14:04.212Z,0.90
2024-04-24T09:16:35.727Z,1.00
2024-04-24T09:19:04.489Z,0.80
2024-04-24T09:21:34.884Z,0.90
2024-04-24T09:24:01.758Z,0.90
2024-04-24T09:26:29.195Z,0.82
2024-04-24T09:28:56.248Z,0.95
2024-04-24T09:31:23.791Z,1.00
2024-04-24T09:33:51.388Z,0.90
2024-04-24T09:36:18.434Z,1.05
2024-04-24T09:38:46.489Z,1.17
2024-04-24T09:41:13.787Z,1.10
2024-04-24T09:43:40.826Z,1.10
2024-04-24T09:46:07.773Z,1.10
2024-04-24T09:48:35.599Z,1.00
2024-04-24T09:51:02.601Z,0.90
2024-04-24T09:53:29.616Z,1.00
2024-04-24T09:56:17.360Z,1.02
2024-04-24T09:58:44.939Z,1.10
2024-04-24T10:01:13.990Z,0.93
2024-04-24T10:03:42.274Z,1.00
2024-04-24T10:06:12.609Z,1.20
2024-04-24T10:08:41.539Z,1.20
2024-04-24T10:11:12.106Z,1.10
2024-04-24T10:13:41.869Z,1.20
2024-04-24T10:16:09.515Z,1.08
2024-04-24T10:18:37.190Z,1.10
2024-04-24T10:21:05.661Z,1.10
2024-04-24T10:23:33.278Z,1.13
2024-04-24T10:26:01.122Z,1.20
2024-04-24T10:28:28.870Z,1.00
2024-04-24T10:30:58.262Z,1.00
2024-04-24T10:33:26.908Z,1.00
2024-04-24T10:35:54.372Z,1.10
2024-04-24T10:38:21.240Z,0.93
2024-04-24T10:40:52.980Z,1.10
2024-04-24T10:43:22.665Z,1.00
2024-04-24T10:45:54.193Z,1.10
2024-04-24T10:48:21.208Z,1.10
2024-04-24T10:50:54.684Z,0.95
2024-04-24T10:53:24.616Z,1.10
2024-04-24T10:55:59.703Z,1.25
2024-04-24T10:58:26.710Z,1.30
2024-04-24T11:00:53.583Z,1.30
2024-04-24T11:03:25.599Z,1.40
2024-04-24T11:05:52.980Z,1.17
2024-04-24T11:08:21.167Z,1.30
2024-04-24T11:10:54.843Z,1.30
2024-04-24T11:13:21.905Z,1.10
2024-04-24T11:15:58.147Z,1.30
2024-04-24T11:18:29.536Z,1.20
2024-04-24T11:20:57.449Z,1.17
2024-04-24T11:23:24.419Z,1.45
2024-04-24T11:25:58.562Z,1.40
2024-04-24T11:28:28.112Z,1.50
2024-04-24T11:30:55.312Z,1.50
2024-04-24T11:33:24.114Z,1.33
2024-04-24T11:35:53.093Z,1.33
2024-04-24T11:38:20.794Z,1.20
2024-04-24T11:40:48.099Z,1.30
2024-04-24T11:43:15.964Z,1.27
2024-04-24T11:45:42.935Z,1.33
2024-04-24T11:48:10.331Z,1.45
2024-04-24T11:50:37.629Z,1.30
2024-04-24T11:53:04.913Z,1.20
2024-04-24T11:55:35.478Z,1.17
2024-04-24T11:58:09.751Z,1.20
2024-04-24T12:00:40.441Z,1.17
2024-04-24T12:03:07.811Z,1.20
2024-04-24T12:05:34.863Z,1.20
2024-04-24T12:08:01.717Z,1.30
2024-04-24T12:10:28.650Z,1.30
2024-04-24T12:12:55.690Z,1.30
2024-04-24T12:15:22.697Z,1.42
2024-04-24T12:17:49.800Z,1.48
2024-04-24T12:20:16.715Z,1.20
2024-04-24T12:22:43.675Z,1.38
2024-04-24T12:25:10.618Z,1.40
2024-04-24T12:27:37.566Z,1.50
2024-04-24T12:30:06.007Z,1.45
2024-04-24T12:32:34.276Z,1.23
2024-04-24T12:35:01.336Z,1.42
2024-04-24T12:37:32.411Z,1.35
2024-04-24T12:39:59.308Z,1.45
2024-04-24T12:42:26.117Z,1.30
2024-04-24T12:44:52.959Z,1.10
2024-04-24T12:47:19.911Z,1.20
2024-04-24T12:49:46.872Z,1.15
2024-04-24T12:52:13.714Z,1.23
2024-04-24T12:54:40.540Z,1.30
2024-04-24T12:57:07.547Z,1.27
2024-04-24T12:59:34.432Z,1.23
2024-04-24T13:02:01.390Z,1.20
2024-04-24T13:04:28.423Z,1.20
2024-04-24T13:06:55.327Z,1.15
2024-04-24T13:09:24.580Z,1.20
2024-04-24T13:11:51.842Z,1.23
2024-04-24T13:14:18.780Z,1.30
2024-04-24T13:16:47.278Z,1.40
2024-04-24T13:19:14.278Z,1.20
2024-04-24T13:21:41.215Z,1.50
2024-04-24T13:24:09.009Z,1.30
2024-04-24T13:26:36.149Z,1.30
2024-04-24T13:29:03.278Z,1.50
2024-04-24T13:31:30.254Z,1.25
2024-04-24T13:33:57.256Z,1.48
2024-04-24T13:36:24.181Z,1.30
2024-04-24T13:38:53.662Z,1.30
2024-04-24T13:41:23.822Z,1.20
2024-04-24T13:43:53.588Z,1.20
2024-04-24T13:46:20.480Z,1.38
2024-04-24T13:48:48.073Z,1.50
2024-04-24T13:51:15.022Z,1.65
2024-04-24T13:53:41.847Z,1.23
2024-04-24T13:56:09.075Z,1.60
2024-04-24T13:58:38.091Z,1.63
2024-04-24T14:01:05.238Z,1.40
2024-04-24T14:03:32.409Z,1.33
2024-04-24T14:06:01.273Z,1.40
2024-04-24T14:08:28.384Z,1.30
2024-04-24T14:10:55.418Z,1.25
2024-04-24T14:13:22.373Z,1.35
2024-04-24T14:15:49.158Z,1.20
2024-04-24T14:18:16.040Z,1.30
2024-04-24T14:20:42.899Z,1.42
2024-04-24T14:23:09.875Z,1.25
2024-04-24T14:25:36.702Z,1.30
2024-04-24T14:28:03.764Z,1.40
2024-04-24T14:30:30.676Z,1.30
2024-04-24T14:32:57.738Z,1.23
2024-04-24T14:35:25.401Z,1.30
2024-04-24T14:37:52.470Z,1.40
2024-04-24T14:40:19.462Z,1.30
2024-04-24T14:42:46.756Z,1.42
2024-04-24T14:45:14.561Z,1.20
2024-04-24T14:47:41.677Z,1.40
2024-04-24T14:50:09.173Z,1.50
2024-04-24T14:52:36.088Z,1.35
2024-04-24T14:55:02.980Z,1.35
2024-04-24T14:57:29.925Z,1.30
2024-04-24T14:59:56.791Z,1.40
2024-04-24T15:02:25.340Z,1.25
2024-04-24T15:04:52.390Z,1.30
2024-04-24T15:07:19.572Z,1.40
2024-04-24T15:09:46.446Z,1.35
2024-04-24T15:12:15.184Z,1.30
2024-04-24T15:14:42.278Z,1.25
2024-04-24T15:17:09.289Z,1.08
2024-04-24T15:19:36.873Z,1.17
2024-04-24T15:22:04.430Z,1.10
2024-04-24T15:24:31.237Z,1.25
2024-04-24T15:26:58.102Z,1.00
2024-04-24T15:29:25.010Z,1.30
2024-04-24T15:31:51.900Z,0.98
2024-04-24T15:34:18.743Z,0.95
2024-04-24T15:36:47.045Z,1.00
2024-04-24T15:39:13.911Z,1.00
2024-04-24T15:41:42.522Z,1.00
2024-04-24T15:44:09.435Z,0.90
2024-04-24T15:46:36.308Z,1.00
2024-04-24T15:49:03.147Z,0.80
2024-04-24T15:51:29.967Z,0.90
2024-04-24T15:53:56.838Z,0.90
2024-04-24T15:56:23.756Z,0.90
2024-04-24T15:58:50.645Z,1.00
2024-04-24T16:01:17.522Z,1.00
2024-04-24T16:03:44.411Z,0.93
2024-04-24T16:06:11.321Z,0.90
2024-04-24T16:08:38.694Z,0.90
2024-04-24T16:11:05.699Z,0.80
2024-04-24T16:13:32.695Z,0.90
2024-04-24T16:15:59.543Z,0.80
2024-04-24T16:18:32.876Z,0.90
2024-04-24T16:21:03.426Z,0.90
2024-04-24T16:23:30.419Z,0.90
2024-04-24T16:25:57.333Z,0.80
2024-04-24T16:28:24.481Z,0.90
2024-04-24T16:30:51.334Z,0.90
2024-04-24T16:33:18.240Z,0.90
2024-04-24T16:35:45.103Z,0.90
2024-04-24T16:38:11.983Z,0.80
2024-04-24T16:40:40.699Z,0.80
2024-04-24T16:43:07.530Z,1.00
2024-04-24T16:45:34.703Z,0.90
2024-04-24T16:48:01.768Z,0.90
2024-04-24T16:50:29.035Z,0.90
2024-04-24T16:52:55.915Z,0.77
2024-04-24T16:55:23.027Z,0.80
2024-04-24T16:57:49.898Z,0.80
2024-04-24T17:00:16.959Z,0.80
2024-04-24T17:02:43.976Z,0.80
2024-04-24T17:05:11.400Z,0.80
2024-04-24T17:07:38.307Z,0.70
2024-04-24T17:10:05.566Z,0.75
2024-04-24T17:12:32.513Z,0.80
2024-04-24T17:14:59.727Z,0.80
2024-04-24T17:17:26.718Z,0.80
2024-04-24T17:19:53.659Z,0.80
2024-04-24T17:22:20.512Z,0.70
2024-04-24T17:24:47.722Z,0.80
2024-04-24T17:27:15.970Z,0.70
2024-04-24T17:29:42.861Z,0.80
2024-04-24T17:32:10.698Z,0.80
2024-04-24T17:34:37.671Z,0.77
2024-04-24T17:37:04.603Z,0.70
2024-04-24T17:39:31.504Z,0.70
2024-04-24T17:42:00.432Z,0.80
2024-04-24T17:44:27.700Z,0.80
2024-04-24T17:46:54.502Z,0.70
2024-04-24T17:49:21.345Z,0.80
2024-04-24T17:51:48.221Z,0.80
2024-04-24T17:54:18.066Z,0.70
2024-04-24T17:56:45.052Z,0.70
2024-04-24T17:59:12.073Z,0.73
2024-04-24T18:01:38.961Z,0.80
2024-04-24T18:04:05.887Z,0.70
2024-04-24T18:06:32.976Z,0.80
2024-04-24T18:08:59.930Z,0.77
2024-04-24T18:11:26.946Z,0.70
2024-04-24T18:13:53.943Z,0.80
2024-04-24T18:16:20.926Z,0.70
2024-04-24T18:18:47.859Z,0.70
2024-04-24T18:21:14.711Z,0.70
2024-04-24T18:23:41.626Z,0.80
2024-04-24T18:26:09.522Z,0.70
2024-04-24T18:28:36.551Z,0.70
2024-04-24T18:31:03.757Z,0.80
2024-04-24T18:33:30.747Z,0.80
2024-04-24T18:35:57.830Z,0.70
2024-04-24T18:38:24.939Z,0.80
2024-04-24T18:40:51.924Z,0.70
2024-04-24T18:43:19.011Z,0.70
2024-04-24T18:45:46.909Z,0.80
2024-04-24T18:48:13.969Z,0.70
2024-04-24T18:50:41.462Z,0.70
2024-04-24T18:53:08.597Z,0.70
2024-04-24T18:55:35.663Z,0.70
2024-04-24T18:58:02.763Z,0.70
2024-04-24T19:00:30.652Z,0.70
2024-04-24T19:02:57.979Z,0.70
2024-04-24T19:05:25.165Z,0.70
2024-04-24T19:07:52.221Z,0.70
2024-04-24T19:10:20.167Z,0.70
2024-04-24T19:12:47.200Z,0.70
2024-04-24T19:15:14.466Z,0.70
2024-04-24T19:17:44.486Z,0.77
2024-04-24T19:20:11.672Z,0.70
2024-04-24T19:22:39.806Z,0.70
2024-04-24T19:25:06.941Z,0.70
2024-04-24T19:27:40.706Z,0.60
2024-04-24T19:30:12.238Z,0.70
2024-04-24T19:32:40.950Z,0.70
2024-04-24T19:35:08.875Z,0.75
2024-04-24T19:37:36.251Z,0.80
2024-04-24T19:40:04.666Z,0.70
2024-04-24T19:42:31.863Z,0.80
2024-04-24T19:44:59.979Z,0.70
2024-04-24T19:47:27.389Z,0.80
2024-04-24T19:49:54.570Z,0.70
2024-04-24T19:52:21.702Z,0.60
2024-04-24T19:54:48.805Z,0.70
2024-04-24T19:57:16.228Z,0.70
2024-04-24T19:59:46.497Z,0.68
2024-04-24T20:02:16.982Z,0.70
2024-04-24T20:04:45.926Z,0.70
2024-04-24T20:07:14.777Z,0.70
2024-04-24T20:09:41.667Z,0.70
2024-04-24T20:12:08.988Z,0.70
2024-04-24T20:14:35.958Z,0.70
2024-04-24T20:17:03.028Z,0.70
2024-04-24T20:19:33.403Z,0.75
2024-04-24T20:22:01.211Z,0.60
2024-04-24T20:24:28.296Z,0.70
2024-04-24T20:26:55.248Z,0.70
2024-04-24T20:29:22.331Z,0.70
2024-04-24T20:31:49.324Z,0.70
2024-04-24T20:34:17.666Z,0.70
2024-04-24T20:36:44.563Z,0.70
2024-04-24T20:39:11.673Z,0.70
2024-04-24T20:41:42.623Z,0.70
2024-04-24T20:44:09.916Z,0.70
2024-04-24T20:46:41.998Z,0.80
2024-04-24T20:49:12.074Z,0.70
2024-04-24T20:51:42.476Z,0.70
2024-04-24T20:54:10.255Z,0.70
2024-04-24T20:56:37.766Z,0.70
2024-04-24T20:59:07.401Z,0.60
2024-04-24T21:01:34.318Z,0.70
2024-04-24T21:04:01.208Z,0.70
2024-04-24T21:06:28.755Z,0.65
2024-04-24T21:08:55.687Z,0.70
2024-04-24T21:11:26.191Z,0.70
2024-04-24T21:13:53.950Z,0.70
2024-04-24T21:16:20.923Z,0.65
2024-04-24T21:18:47.972Z,0.70
2024-04-24T21:21:15.044Z,0.70
2024-04-24T21:23:42.769Z,0.70
2024-04-24T21:26:09.659Z,0.70
2024-04-24T21:28:36.711Z,0.80
2024-04-24T21:31:04.874Z,0.70
2024-04-24T21:33:32.624Z,0.70
2024-04-24T21:35:59.724Z,0.70
2024-04-24T21:38:36.532Z,0.70
2024-04-24T21:41:08.025Z,0.70
2024-04-24T21:43:35.157Z,0.70
2024-04-24T21:46:07.614Z,0.70
2024-04-24T21:48:34.574Z,0.73
2024-04-24T21:51:01.631Z,0.70
2024-04-24T21:53:28.770Z,0.70
2024-04-24T21:55:58.432Z,0.70
2024-04-24T21:58:25.609Z,0.70
2024-04-24T22:00:52.493Z,0.80
2024-04-24T22:03:19.943Z,0.70
2024-04-24T22:05:46.840Z,0.70
2024-04-24T22:08:13.774Z,0.70
2024-04-24T22:10:41.259Z,0.70
2024-04-24T22:13:11.014Z,0.68
2024-04-24T22:15:37.872Z,0.70
2024-04-24T22:18:05.762Z,0.70
2024-04-24T22:20:32.826Z,0.70
2024-04-24T22:22:59.851Z,0.68
2024-04-24T22:25:26.635Z,0.63
2024-04-24T22:27:53.736Z,0.60
2024-04-24T22:30:20.589Z,0.70
2024-04-24T22:32:47.627Z,0.70
2024-04-24T22:35:14.615Z,0.70
2024-04-24T22:37:41.467Z,0.63
2024-04-24T22:40:08.660Z,0.60
2024-04-24T22:42:35.539Z,0.70
2024-04-24T22:45:02.707Z,0.60
2024-04-24T22:47:29.565Z,0.60
2024-04-24T22:49:56.537Z,0.70
2024-04-24T22:52:23.370Z,0.60
2024-04-24T22:54:50.167Z,0.70
2024-04-24T22:57:17.066Z,0.70
2024-04-24T22:59:43.874Z,0.60
2024-04-24T23:02:11.223Z,0.70
2024-04-24T23:04:38.134Z,0.63
2024-04-24T23:07:05.074Z,0.60
2024-04-24T23:09:31.946Z,0.70
2024-04-24T23:11:58.919Z,0.68
2024-04-24T23:14:28.553Z,0.60
2024-04-24T23:16:55.891Z,0.70
2024-04-24T23:19:22.954Z,0.60
2024-04-24T23:21:49.978Z,0.60
2024-04-24T23:24:16.934Z,0.70
2024-04-24T23:26:48.835Z,0.70
2024-04-24T23:29:16.077Z,0.60
2024-04-24T23:31:43.079Z,0.60
2024-04-24T23:34:10.028Z,0.65
2024-04-24T23:36:37.002Z,0.60
2024-04-24T23:39:03.928Z,0.70
2024-04-24T23:41:30.772Z,0.70
2024-04-24T23:43:57.644Z,0.60
2024-04-24T23:46:24.490Z,0.70
2024-04-24T23:48:52.513Z,0.70
2024-04-24T23:51:19.526Z,0.70
2024-04-24T23:53:46.327Z,0.60
2024-04-24T23:56:13.227Z,0.70
2024-04-24T23:58:40.098Z,0.70
